sensor_id;sensor_type;location;lat;lon;timestamp;P1;durP1;ratioP1;P2;durP2;ratioP2
23362;SDS011;11853;48.080;11.960;2023-11-19T00:00:37;2.50;;;2.30;;
23362;SDS011;11853;48.080;11.960;2023-11-19T00:03:02;3.17;;;2.85;;
23362;SDS011;11853;48.080;11.960;2023-11-19T00:05:28;2.60;;;2.40;;
23362;SDS011;11853;48.080;11.960;2023-11-19T00:07:54;2.38;;;2.28;;
23362;SDS011;11853;48.080;11.960;2023-11-19T00:10:20;2.50;;;2.40;;
23362;SDS011;11853;48.080;11.960;2023-11-19T00:12:49;2.33;;;2.22;;
23362;SDS011;11853;48.080;11.960;2023-11-19T00:15:15;2.40;;;2.30;;
23362;SDS011;11853;48.080;11.960;2023-11-19T00:17:44;3.38;;;3.17;;
23362;SDS011;11853;48.080;11.960;2023-11-19T00:20:14;4.45;;;4.05;;
23362;SDS011;11853;48.080;11.960;2023-11-19T00:22:42;3.60;;;3.30;;
23362;SDS011;11853;48.080;11.960;2023-11-19T00:25:08;3.00;;;2.80;;
23362;SDS011;11853;48.080;11.960;2023-11-19T00:27:34;3.53;;;3.33;;
23362;SDS011;11853;48.080;11.960;2023-11-19T00:30:00;3.40;;;3.10;;
23362;SDS011;11853;48.080;11.960;2023-11-19T00:32:26;3.30;;;3.10;;
23362;SDS011;11853;48.080;11.960;2023-11-19T00:34:52;4.32;;;3.00;;
23362;SDS011;11853;48.080;11.960;2023-11-19T00:37:18;3.40;;;3.15;;
23362;SDS011;11853;48.080;11.960;2023-11-19T00:39:44;3.00;;;2.80;;
23362;SDS011;11853;48.080;11.960;2023-11-19T00:42:11;2.70;;;2.50;;
23362;SDS011;11853;48.080;11.960;2023-11-19T00:44:40;3.00;;;2.80;;
23362;SDS011;11853;48.080;11.960;2023-11-19T00:47:06;2.90;;;2.70;;
23362;SDS011;11853;48.080;11.960;2023-11-19T00:49:34;2.53;;;2.35;;
23362;SDS011;11853;48.080;11.960;2023-11-19T00:52:00;2.75;;;2.58;;
23362;SDS011;11853;48.080;11.960;2023-11-19T00:54:27;2.60;;;2.40;;
23362;SDS011;11853;48.080;11.960;2023-11-19T00:56:53;3.10;;;2.70;;
23362;SDS011;11853;48.080;11.960;2023-11-19T00:59:19;2.03;;;1.92;;
23362;SDS011;11853;48.080;11.960;2023-11-19T01:01:45;2.05;;;1.95;;
23362;SDS011;11853;48.080;11.960;2023-11-19T01:04:10;2.45;;;2.35;;
23362;SDS011;11853;48.080;11.960;2023-11-19T01:06:36;6.75;;;6.35;;
23362;SDS011;11853;48.080;11.960;2023-11-19T01:09:02;3.92;;;3.72;;
23362;SDS011;11853;48.080;11.960;2023-11-19T01:11:27;2.30;;;2.20;;
23362;SDS011;11853;48.080;11.960;2023-11-19T01:13:53;2.80;;;2.65;;
23362;SDS011;11853;48.080;11.960;2023-11-19T01:16:19;2.00;;;1.90;;
23362;SDS011;11853;48.080;11.960;2023-11-19T01:18:49;2.17;;;2.08;;
23362;SDS011;11853;48.080;11.960;2023-11-19T01:21:15;2.03;;;1.92;;
23362;SDS011;11853;48.080;11.960;2023-11-19T01:23:41;2.13;;;2.03;;
23362;SDS011;11853;48.080;11.960;2023-11-19T01:26:09;2.20;;;2.10;;
23362;SDS011;11853;48.080;11.960;2023-11-19T01:28:35;2.63;;;2.42;;
23362;SDS011;11853;48.080;11.960;2023-11-19T01:31:01;2.22;;;2.13;;
23362;SDS011;11853;48.080;11.960;2023-11-19T01:33:28;2.25;;;2.15;;
23362;SDS011;11853;48.080;11.960;2023-11-19T01:35:55;2.50;;;2.40;;
23362;SDS011;11853;48.080;11.960;2023-11-19T01:38:24;2.67;;;2.58;;
23362;SDS011;11853;48.080;11.960;2023-11-19T01:40:50;2.47;;;2.38;;
23362;SDS011;11853;48.080;11.960;2023-11-19T01:46:17;2.22;;;2.13;;
23362;SDS011;11853;48.080;11.960;2023-11-19T01:48:43;2.30;;;2.20;;
23362;SDS011;11853;48.080;11.960;2023-11-19T01:51:11;2.47;;;2.38;;
23362;SDS011;11853;48.080;11.960;2023-11-19T01:53:41;2.40;;;2.22;;
23362;SDS011;11853;48.080;11.960;2023-11-19T01:56:08;2.20;;;2.10;;
23362;SDS011;11853;48.080;11.960;2023-11-19T01:58:37;2.22;;;2.10;;
23362;SDS011;11853;48.080;11.960;2023-11-19T02:01:05;3.03;;;2.80;;
23362;SDS011;11853;48.080;11.960;2023-11-19T02:03:32;2.50;;;2.40;;
23362;SDS011;11853;48.080;11.960;2023-11-19T02:06:01;2.70;;;2.50;;
23362;SDS011;11853;48.080;11.960;2023-11-19T02:08:28;2.70;;;2.50;;
23362;SDS011;11853;48.080;11.960;2023-11-19T02:10:54;2.20;;;2.10;;
23362;SDS011;11853;48.080;11.960;2023-11-19T02:13:25;2.28;;;2.17;;
23362;SDS011;11853;48.080;11.960;2023-11-19T02:15:51;2.53;;;2.38;;
23362;SDS011;11853;48.080;11.960;2023-11-19T02:18:18;2.45;;;2.35;;
23362;SDS011;11853;48.080;11.960;2023-11-19T02:20:45;2.70;;;2.50;;
23362;SDS011;11853;48.080;11.960;2023-11-19T02:23:12;2.85;;;2.67;;
23362;SDS011;11853;48.080;11.960;2023-11-19T02:25:38;2.90;;;2.70;;
23362;SDS011;11853;48.080;11.960;2023-11-19T02:28:05;2.88;;;2.70;;
23362;SDS011;11853;48.080;11.960;2023-11-19T02:30:32;2.60;;;2.50;;
23362;SDS011;11853;48.080;11.960;2023-11-19T02:32:58;3.60;;;2.80;;
23362;SDS011;11853;48.080;11.960;2023-11-19T02:35:30;2.70;;;2.50;;
23362;SDS011;11853;48.080;11.960;2023-11-19T02:37:58;2.67;;;2.53;;
23362;SDS011;11853;48.080;11.960;2023-11-19T02:40:29;2.97;;;2.78;;
23362;SDS011;11853;48.080;11.960;2023-11-19T02:42:55;2.95;;;2.75;;
23362;SDS011;11853;48.080;11.960;2023-11-19T02:45:24;3.10;;;2.90;;
23362;SDS011;11853;48.080;11.960;2023-11-19T02:47:53;3.72;;;3.42;;
23362;SDS011;11853;48.080;11.960;2023-11-19T02:50:20;3.25;;;3.05;;
23362;SDS011;11853;48.080;11.960;2023-11-19T02:52:52;4.18;;;3.85;;
23362;SDS011;11853;48.080;11.960;2023-11-19T02:55:21;4.15;;;3.75;;
23362;SDS011;11853;48.080;11.960;2023-11-19T02:57:48;5.07;;;4.55;;
23362;SDS011;11853;48.080;11.960;2023-11-19T03:00:18;4.20;;;3.90;;
23362;SDS011;11853;48.080;11.960;2023-11-19T03:02:48;3.20;;;3.00;;
23362;SDS011;11853;48.080;11.960;2023-11-19T03:05:23;3.60;;;3.30;;
23362;SDS011;11853;48.080;11.960;2023-11-19T03:07:49;3.13;;;2.95;;
23362;SDS011;11853;48.080;11.960;2023-11-19T03:10:15;3.35;;;3.15;;
23362;SDS011;11853;48.080;11.960;2023-11-19T03:12:41;3.10;;;2.90;;
23362;SDS011;11853;48.080;11.960;2023-11-19T03:15:08;3.17;;;2.97;;
23362;SDS011;11853;48.080;11.960;2023-11-19T03:17:39;2.90;;;2.70;;
23362;SDS011;11853;48.080;11.960;2023-11-19T03:20:06;3.20;;;3.00;;
23362;SDS011;11853;48.080;11.960;2023-11-19T03:22:40;3.08;;;2.88;;
23362;SDS011;11853;48.080;11.960;2023-11-19T03:25:09;3.45;;;3.25;;
23362;SDS011;11853;48.080;11.960;2023-11-19T03:27:38;3.33;;;3.13;;
23362;SDS011;11853;48.080;11.960;2023-11-19T03:30:07;3.17;;;2.97;;
23362;SDS011;11853;48.080;11.960;2023-11-19T03:32:34;3.42;;;3.22;;
23362;SDS011;11853;48.080;11.960;2023-11-19T03:35:01;3.40;;;3.20;;
23362;SDS011;11853;48.080;11.960;2023-11-19T03:37:29;3.25;;;3.05;;
23362;SDS011;11853;48.080;11.960;2023-11-19T03:39:58;3.53;;;3.33;;
23362;SDS011;11853;48.080;11.960;2023-11-19T03:42:27;3.90;;;3.60;;
23362;SDS011;11853;48.080;11.960;2023-11-19T03:44:55;3.28;;;3.08;;
23362;SDS011;11853;48.080;11.960;2023-11-19T03:47:21;3.60;;;3.40;;
23362;SDS011;11853;48.080;11.960;2023-11-19T03:49:50;3.40;;;3.20;;
23362;SDS011;11853;48.080;11.960;2023-11-19T03:52:19;3.95;;;3.65;;
23362;SDS011;11853;48.080;11.960;2023-11-19T03:54:45;3.60;;;3.38;;
23362;SDS011;11853;48.080;11.960;2023-11-19T03:57:11;4.03;;;3.80;;
23362;SDS011;11853;48.080;11.960;2023-11-19T03:59:41;3.55;;;3.28;;
23362;SDS011;11853;48.080;11.960;2023-11-19T04:02:06;4.07;;;3.78;;
23362;SDS011;11853;48.080;11.960;2023-11-19T04:04:32;3.80;;;3.50;;
23362;SDS011;11853;48.080;11.960;2023-11-19T04:06:59;3.80;;;3.50;;
23362;SDS011;11853;48.080;11.960;2023-11-19T04:09:26;3.38;;;3.13;;
23362;SDS011;11853;48.080;11.960;2023-11-19T04:11:51;3.78;;;3.55;;
23362;SDS011;11853;48.080;11.960;2023-11-19T04:14:17;3.67;;;3.47;;
23362;SDS011;11853;48.080;11.960;2023-11-19T04:16:43;3.70;;;3.50;;
23362;SDS011;11853;48.080;11.960;2023-11-19T04:19:13;3.85;;;3.55;;
23362;SDS011;11853;48.080;11.960;2023-11-19T04:21:41;3.88;;;3.63;;
23362;SDS011;11853;48.080;11.960;2023-11-19T04:27:29;4.50;;;4.20;;
23362;SDS011;11853;48.080;11.960;2023-11-19T04:29:55;3.97;;;3.67;;
23362;SDS011;11853;48.080;11.960;2023-11-19T04:32:21;4.22;;;3.92;;
23362;SDS011;11853;48.080;11.960;2023-11-19T04:34:47;3.85;;;3.60;;
23362;SDS011;11853;48.080;11.960;2023-11-19T04:37:13;3.97;;;3.75;;
23362;SDS011;11853;48.080;11.960;2023-11-19T04:39:39;4.47;;;4.10;;
23362;SDS011;11853;48.080;11.960;2023-11-19T04:42:05;4.03;;;3.72;;
23362;SDS011;11853;48.080;11.960;2023-11-19T04:44:31;4.22;;;3.92;;
23362;SDS011;11853;48.080;11.960;2023-11-19T04:46:57;3.80;;;3.55;;
23362;SDS011;11853;48.080;11.960;2023-11-19T04:49:23;4.47;;;4.15;;
23362;SDS011;11853;48.080;11.960;2023-11-19T04:51:49;4.20;;;3.90;;
23362;SDS011;11853;48.080;11.960;2023-11-19T04:54:15;4.25;;;3.95;;
23362;SDS011;11853;48.080;11.960;2023-11-19T04:56:44;4.40;;;4.10;;
23362;SDS011;11853;48.080;11.960;2023-11-19T04:59:11;3.90;;;3.70;;
23362;SDS011;11853;48.080;11.960;2023-11-19T05:01:37;4.93;;;4.38;;
23362;SDS011;11853;48.080;11.960;2023-11-19T05:04:02;3.72;;;3.42;;
23362;SDS011;11853;48.080;11.960;2023-11-19T05:06:29;3.08;;;2.88;;
23362;SDS011;11853;48.080;11.960;2023-11-19T05:08:58;3.20;;;3.00;;
23362;SDS011;11853;48.080;11.960;2023-11-19T05:11:33;3.33;;;3.08;;
23362;SDS011;11853;48.080;11.960;2023-11-19T05:13:59;2.75;;;2.55;;
23362;SDS011;11853;48.080;11.960;2023-11-19T05:16:25;2.58;;;2.35;;
23362;SDS011;11853;48.080;11.960;2023-11-19T05:18:51;1.90;;;1.80;;
23362;SDS011;11853;48.080;11.960;2023-11-19T05:21:17;1.75;;;1.65;;
23362;SDS011;11853;48.080;11.960;2023-11-19T05:23:43;1.60;;;1.50;;
23362;SDS011;11853;48.080;11.960;2023-11-19T05:26:08;1.63;;;1.52;;
23362;SDS011;11853;48.080;11.960;2023-11-19T05:28:37;1.45;;;1.20;;
23362;SDS011;11853;48.080;11.960;2023-11-19T05:31:04;1.25;;;1.20;;
23362;SDS011;11853;48.080;11.960;2023-11-19T05:33:31;0.80;;;0.80;;
23362;SDS011;11853;48.080;11.960;2023-11-19T05:35:56;0.95;;;0.95;;
23362;SDS011;11853;48.080;11.960;2023-11-19T05:38:22;1.55;;;1.10;;
23362;SDS011;11853;48.080;11.960;2023-11-19T05:40:48;1.13;;;0.90;;
23362;SDS011;11853;48.080;11.960;2023-11-19T05:43:14;0.85;;;0.80;;
23362;SDS011;11853;48.080;11.960;2023-11-19T05:45:42;1.17;;;0.90;;
23362;SDS011;11853;48.080;11.960;2023-11-19T05:48:08;1.05;;;0.75;;
23362;SDS011;11853;48.080;11.960;2023-11-19T05:50:40;1.23;;;0.98;;
23362;SDS011;11853;48.080;11.960;2023-11-19T05:53:05;0.95;;;0.70;;
23362;SDS011;11853;48.080;11.960;2023-11-19T05:55:35;1.65;;;0.88;;
23362;SDS011;11853;48.080;11.960;2023-11-19T05:58:19;0.60;;;0.60;;
23362;SDS011;11853;48.080;11.960;2023-11-19T06:00:48;2.22;;;1.13;;
23362;SDS011;11853;48.080;11.960;2023-11-19T06:03:15;1.45;;;1.35;;
23362;SDS011;11853;48.080;11.960;2023-11-19T06:05:44;0.98;;;0.90;;
23362;SDS011;11853;48.080;11.960;2023-11-19T06:08:17;0.80;;;0.80;;
23362;SDS011;11853;48.080;11.960;2023-11-19T06:10:43;0.70;;;0.70;;
23362;SDS011;11853;48.080;11.960;2023-11-19T06:13:11;0.60;;;0.60;;
23362;SDS011;11853;48.080;11.960;2023-11-19T06:15:43;0.50;;;0.50;;
23362;SDS011;11853;48.080;11.960;2023-11-19T06:18:09;0.52;;;0.47;;
23362;SDS011;11853;48.080;11.960;2023-11-19T06:20:37;1.10;;;1.00;;
23362;SDS011;11853;48.080;11.960;2023-11-19T06:23:03;0.50;;;0.50;;
23362;SDS011;11853;48.080;11.960;2023-11-19T06:25:29;0.63;;;0.40;;
23362;SDS011;11853;48.080;11.960;2023-11-19T06:28:00;0.45;;;0.45;;
23362;SDS011;11853;48.080;11.960;2023-11-19T06:30:26;1.63;;;0.73;;
23362;SDS011;11853;48.080;11.960;2023-11-19T06:32:56;0.95;;;0.80;;
23362;SDS011;11853;48.080;11.960;2023-11-19T06:35:22;0.60;;;0.60;;
23362;SDS011;11853;48.080;11.960;2023-11-19T06:37:48;0.50;;;0.50;;
23362;SDS011;11853;48.080;11.960;2023-11-19T06:40:13;1.02;;;0.80;;
23362;SDS011;11853;48.080;11.960;2023-11-19T06:42:40;0.60;;;0.60;;
23362;SDS011;11853;48.080;11.960;2023-11-19T06:45:06;0.73;;;0.55;;
23362;SDS011;11853;48.080;11.960;2023-11-19T06:47:32;0.50;;;0.50;;
23362;SDS011;11853;48.080;11.960;2023-11-19T06:49:58;0.60;;;0.60;;
23362;SDS011;11853;48.080;11.960;2023-11-19T06:52:24;0.60;;;0.60;;
23362;SDS011;11853;48.080;11.960;2023-11-19T06:54:50;0.80;;;0.40;;
23362;SDS011;11853;48.080;11.960;2023-11-19T06:57:16;0.52;;;0.52;;
23362;SDS011;11853;48.080;11.960;2023-11-19T06:59:42;0.68;;;0.68;;
23362;SDS011;11853;48.080;11.960;2023-11-19T07:02:08;1.48;;;0.40;;
23362;SDS011;11853;48.080;11.960;2023-11-19T07:04:34;0.43;;;0.40;;
23362;SDS011;11853;48.080;11.960;2023-11-19T07:07:00;0.40;;;0.40;;
23362;SDS011;11853;48.080;11.960;2023-11-19T07:09:26;0.63;;;0.63;;
23362;SDS011;11853;48.080;11.960;2023-11-19T07:11:52;0.50;;;0.50;;
23362;SDS011;11853;48.080;11.960;2023-11-19T07:17:21;0.50;;;0.50;;
23362;SDS011;11853;48.080;11.960;2023-11-19T07:19:49;0.50;;;0.50;;
23362;SDS011;11853;48.080;11.960;2023-11-19T07:22:15;0.40;;;0.40;;
23362;SDS011;11853;48.080;11.960;2023-11-19T07:24:41;0.50;;;0.50;;
23362;SDS011;11853;48.080;11.960;2023-11-19T07:27:06;0.50;;;0.50;;
23362;SDS011;11853;48.080;11.960;2023-11-19T07:29:34;1.00;;;0.40;;
23362;SDS011;11853;48.080;11.960;2023-11-19T07:32:02;0.50;;;0.50;;
23362;SDS011;11853;48.080;11.960;2023-11-19T07:34:28;0.50;;;0.50;;
23362;SDS011;11853;48.080;11.960;2023-11-19T07:36:54;0.47;;;0.47;;
23362;SDS011;11853;48.080;11.960;2023-11-19T07:39:24;0.30;;;0.30;;
23362;SDS011;11853;48.080;11.960;2023-11-19T07:41:50;0.30;;;0.30;;
23362;SDS011;11853;48.080;11.960;2023-11-19T07:44:15;0.93;;;0.57;;
23362;SDS011;11853;48.080;11.960;2023-11-19T07:46:41;1.80;;;0.93;;
23362;SDS011;11853;48.080;11.960;2023-11-19T07:49:10;0.68;;;0.68;;
23362;SDS011;11853;48.080;11.960;2023-11-19T07:51:36;0.40;;;0.40;;
23362;SDS011;11853;48.080;11.960;2023-11-19T07:54:02;0.80;;;0.80;;
23362;SDS011;11853;48.080;11.960;2023-11-19T07:56:32;1.27;;;1.17;;
23362;SDS011;11853;48.080;11.960;2023-11-19T07:59:02;0.40;;;0.40;;
23362;SDS011;11853;48.080;11.960;2023-11-19T08:01:28;0.50;;;0.50;;
23362;SDS011;11853;48.080;11.960;2023-11-19T08:03:57;0.20;;;0.20;;
23362;SDS011;11853;48.080;11.960;2023-11-19T08:06:23;0.30;;;0.30;;
23362;SDS011;11853;48.080;11.960;2023-11-19T08:08:48;0.22;;;0.22;;
23362;SDS011;11853;48.080;11.960;2023-11-19T08:11:14;0.30;;;0.30;;
23362;SDS011;11853;48.080;11.960;2023-11-19T08:13:40;2.20;;;0.30;;
23362;SDS011;11853;48.080;11.960;2023-11-19T08:16:06;0.47;;;0.25;;
23362;SDS011;11853;48.080;11.960;2023-11-19T08:18:32;0.50;;;0.50;;
23362;SDS011;11853;48.080;11.960;2023-11-19T08:20:58;0.40;;;0.40;;
23362;SDS011;11853;48.080;11.960;2023-11-19T08:23:26;0.60;;;0.60;;
23362;SDS011;11853;48.080;11.960;2023-11-19T08:25:57;0.20;;;0.20;;
23362;SDS011;11853;48.080;11.960;2023-11-19T08:28:24;0.45;;;0.43;;
23362;SDS011;11853;48.080;11.960;2023-11-19T08:30:50;0.45;;;0.45;;
23362;SDS011;11853;48.080;11.960;2023-11-19T08:33:16;0.77;;;0.50;;
23362;SDS011;11853;48.080;11.960;2023-11-19T08:35:42;0.43;;;0.30;;
23362;SDS011;11853;48.080;11.960;2023-11-19T08:38:07;0.47;;;0.47;;
23362;SDS011;11853;48.080;11.960;2023-11-19T08:40:33;1.17;;;0.52;;
23362;SDS011;11853;48.080;11.960;2023-11-19T08:42:59;0.77;;;0.60;;
23362;SDS011;11853;48.080;11.960;2023-11-19T08:45:25;0.40;;;0.40;;
23362;SDS011;11853;48.080;11.960;2023-11-19T08:47:51;0.77;;;0.77;;
23362;SDS011;11853;48.080;11.960;2023-11-19T08:50:16;0.93;;;0.93;;
23362;SDS011;11853;48.080;11.960;2023-11-19T08:52:42;1.00;;;1.00;;
23362;SDS011;11853;48.080;11.960;2023-11-19T08:55:08;1.25;;;1.15;;
23362;SDS011;11853;48.080;11.960;2023-11-19T08:57:35;1.00;;;1.00;;
23362;SDS011;11853;48.080;11.960;2023-11-19T09:00:01;0.52;;;0.52;;
23362;SDS011;11853;48.080;11.960;2023-11-19T09:02:28;0.55;;;0.55;;
23362;SDS011;11853;48.080;11.960;2023-11-19T09:04:53;0.80;;;0.80;;
23362;SDS011;11853;48.080;11.960;2023-11-19T09:07:19;0.52;;;0.52;;
23362;SDS011;11853;48.080;11.960;2023-11-19T09:09:45;0.60;;;0.60;;
23362;SDS011;11853;48.080;11.960;2023-11-19T09:12:10;1.40;;;1.27;;
23362;SDS011;11853;48.080;11.960;2023-11-19T09:14:36;2.25;;;0.98;;
23362;SDS011;11853;48.080;11.960;2023-11-19T09:17:02;0.60;;;0.60;;
23362;SDS011;11853;48.080;11.960;2023-11-19T09:19:28;0.77;;;0.73;;
23362;SDS011;11853;48.080;11.960;2023-11-19T09:21:53;40.75;;;14.07;;
23362;SDS011;11853;48.080;11.960;2023-11-19T09:24:19;10.02;;;4.40;;
23362;SDS011;11853;48.080;11.960;2023-11-19T09:26:48;3.72;;;2.10;;
23362;SDS011;11853;48.080;11.960;2023-11-19T09:29:14;2.72;;;1.70;;
23362;SDS011;11853;48.080;11.960;2023-11-19T09:31:43;1.60;;;1.50;;
23362;SDS011;11853;48.080;11.960;2023-11-19T09:34:09;1.85;;;1.70;;
23362;SDS011;11853;48.080;11.960;2023-11-19T09:36:34;1.23;;;1.05;;
23362;SDS011;11853;48.080;11.960;2023-11-19T09:39:00;1.73;;;1.63;;
23362;SDS011;11853;48.080;11.960;2023-11-19T09:41:27;1.60;;;1.50;;
23362;SDS011;11853;48.080;11.960;2023-11-19T09:43:53;0.93;;;0.90;;
23362;SDS011;11853;48.080;11.960;2023-11-19T09:46:29;0.93;;;0.93;;
23362;SDS011;11853;48.080;11.960;2023-11-19T09:49:00;1.05;;;0.60;;
23362;SDS011;11853;48.080;11.960;2023-11-19T09:51:32;0.70;;;0.70;;
23362;SDS011;11853;48.080;11.960;2023-11-19T09:53:58;0.60;;;0.60;;
23362;SDS011;11853;48.080;11.960;2023-11-19T09:56:24;0.90;;;0.82;;
23362;SDS011;11853;48.080;11.960;2023-11-19T09:58:59;0.52;;;0.52;;
23362;SDS011;11853;48.080;11.960;2023-11-19T10:01:25;1.17;;;0.98;;
23362;SDS011;11853;48.080;11.960;2023-11-19T10:03:51;1.50;;;1.02;;
23362;SDS011;11853;48.080;11.960;2023-11-19T10:06:20;1.65;;;0.98;;
23362;SDS011;11853;48.080;11.960;2023-11-19T10:08:47;0.73;;;0.70;;
23362;SDS011;11853;48.080;11.960;2023-11-19T10:11:13;1.90;;;1.70;;
23362;SDS011;11853;48.080;11.960;2023-11-19T10:13:40;2.30;;;1.88;;
23362;SDS011;11853;48.080;11.960;2023-11-19T10:16:13;3.75;;;2.85;;
23362;SDS011;11853;48.080;11.960;2023-11-19T10:18:43;1.40;;;1.30;;
23362;SDS011;11853;48.080;11.960;2023-11-19T10:21:14;1.77;;;1.50;;
23362;SDS011;11853;48.080;11.960;2023-11-19T10:23:53;0.93;;;0.85;;
23362;SDS011;11853;48.080;11.960;2023-11-19T10:26:25;1.77;;;1.15;;
23362;SDS011;11853;48.080;11.960;2023-11-19T10:28:51;0.90;;;0.90;;
23362;SDS011;11853;48.080;11.960;2023-11-19T10:31:17;0.52;;;0.50;;
23362;SDS011;11853;48.080;11.960;2023-11-19T10:33:45;0.75;;;0.75;;
23362;SDS011;11853;48.080;11.960;2023-11-19T10:36:11;0.70;;;0.70;;
23362;SDS011;11853;48.080;11.960;2023-11-19T10:38:53;0.60;;;0.60;;
23362;SDS011;11853;48.080;11.960;2023-11-19T10:41:26;0.73;;;0.73;;
23362;SDS011;11853;48.080;11.960;2023-11-19T10:43:56;0.85;;;0.70;;
23362;SDS011;11853;48.080;11.960;2023-11-19T10:46:22;1.38;;;1.13;;
23362;SDS011;11853;48.080;11.960;2023-11-19T10:48:48;1.55;;;0.90;;
23362;SDS011;11853;48.080;11.960;2023-11-19T10:51:18;0.60;;;0.60;;
23362;SDS011;11853;48.080;11.960;2023-11-19T10:53:49;1.02;;;0.65;;
23362;SDS011;11853;48.080;11.960;2023-11-19T10:56:16;1.20;;;1.10;;
23362;SDS011;11853;48.080;11.960;2023-11-19T10:58:45;0.88;;;0.80;;
23362;SDS011;11853;48.080;11.960;2023-11-19T11:01:15;0.82;;;0.40;;
23362;SDS011;11853;48.080;11.960;2023-11-19T11:03:45;0.55;;;0.55;;
23362;SDS011;11853;48.080;11.960;2023-11-19T11:06:12;0.70;;;0.70;;
23362;SDS011;11853;48.080;11.960;2023-11-19T11:08:38;1.02;;;0.93;;
23362;SDS011;11853;48.080;11.960;2023-11-19T11:11:05;1.10;;;1.00;;
23362;SDS011;11853;48.080;11.960;2023-11-19T11:13:32;1.50;;;0.50;;
23362;SDS011;11853;48.080;11.960;2023-11-19T11:15:59;0.70;;;0.70;;
23362;SDS011;11853;48.080;11.960;2023-11-19T11:18:25;0.55;;;0.55;;
23362;SDS011;11853;48.080;11.960;2023-11-19T11:21:02;0.98;;;0.88;;
23362;SDS011;11853;48.080;11.960;2023-11-19T11:23:42;0.98;;;0.65;;
23362;SDS011;11853;48.080;11.960;2023-11-19T11:29:41;0.70;;;0.70;;
23362;SDS011;11853;48.080;11.960;2023-11-19T11:32:17;0.82;;;0.82;;
23362;SDS011;11853;48.080;11.960;2023-11-19T11:37:59;0.90;;;0.90;;
23362;SDS011;11853;48.080;11.960;2023-11-19T11:40:28;0.88;;;0.88;;
23362;SDS011;11853;48.080;11.960;2023-11-19T11:42:54;1.20;;;0.98;;
23362;SDS011;11853;48.080;11.960;2023-11-19T11:45:19;1.73;;;1.63;;
23362;SDS011;11853;48.080;11.960;2023-11-19T11:50:47;2.20;;;1.33;;
23362;SDS011;11853;48.080;11.960;2023-11-19T11:53:18;1.00;;;0.90;;
23362;SDS011;11853;48.080;11.960;2023-11-19T11:58:13;1.40;;;1.30;;
23362;SDS011;11853;48.080;11.960;2023-11-19T12:00:42;1.58;;;1.48;;
23362;SDS011;11853;48.080;11.960;2023-11-19T12:03:08;1.27;;;0.70;;
23362;SDS011;11853;48.080;11.960;2023-11-19T12:05:43;0.70;;;0.70;;
23362;SDS011;11853;48.080;11.960;2023-11-19T12:08:11;1.42;;;1.23;;
23362;SDS011;11853;48.080;11.960;2023-11-19T12:10:46;3.05;;;2.20;;
23362;SDS011;11853;48.080;11.960;2023-11-19T12:13:13;5.28;;;3.25;;
23362;SDS011;11853;48.080;11.960;2023-11-19T12:18:28;1.85;;;1.50;;
23362;SDS011;11853;48.080;11.960;2023-11-19T12:20:55;1.63;;;0.80;;
23362;SDS011;11853;48.080;11.960;2023-11-19T12:23:24;0.50;;;0.50;;
23362;SDS011;11853;48.080;11.960;2023-11-19T12:25:50;0.60;;;0.60;;
23362;SDS011;11853;48.080;11.960;2023-11-19T12:28:16;1.17;;;0.40;;
23362;SDS011;11853;48.080;11.960;2023-11-19T12:30:45;1.20;;;0.50;;
23362;SDS011;11853;48.080;11.960;2023-11-19T12:33:12;0.80;;;0.30;;
23362;SDS011;11853;48.080;11.960;2023-11-19T12:35:44;0.40;;;0.40;;
23362;SDS011;11853;48.080;11.960;2023-11-19T12:41:08;0.80;;;0.60;;
23362;SDS011;11853;48.080;11.960;2023-11-19T12:43:40;2.20;;;0.60;;
23362;SDS011;11853;48.080;11.960;2023-11-19T12:46:27;0.75;;;0.60;;
23362;SDS011;11853;48.080;11.960;2023-11-19T12:48:56;0.90;;;0.40;;
23362;SDS011;11853;48.080;11.960;2023-11-19T12:51:30;1.42;;;1.33;;
23362;SDS011;11853;48.080;11.960;2023-11-19T12:53:57;0.95;;;0.95;;
23362;SDS011;11853;48.080;11.960;2023-11-19T12:56:23;2.85;;;1.50;;
23362;SDS011;11853;48.080;11.960;2023-11-19T12:58:49;2.13;;;2.03;;
23362;SDS011;11853;48.080;11.960;2023-11-19T13:01:19;1.48;;;1.35;;
23362;SDS011;11853;48.080;11.960;2023-11-19T13:03:46;3.88;;;2.60;;
23362;SDS011;11853;48.080;11.960;2023-11-19T13:06:14;6.78;;;4.22;;
23362;SDS011;11853;48.080;11.960;2023-11-19T13:08:48;8.52;;;5.20;;
23362;SDS011;11853;48.080;11.960;2023-11-19T13:14:07;8.35;;;4.97;;
23362;SDS011;11853;48.080;11.960;2023-11-19T13:16:37;6.75;;;3.95;;
23362;SDS011;11853;48.080;11.960;2023-11-19T13:19:03;13.43;;;7.00;;
23362;SDS011;11853;48.080;11.960;2023-11-19T13:21:40;5.55;;;3.38;;
23362;SDS011;11853;48.080;11.960;2023-11-19T13:24:13;3.72;;;3.05;;
23362;SDS011;11853;48.080;11.960;2023-11-19T13:26:39;1.42;;;1.33;;
23362;SDS011;11853;48.080;11.960;2023-11-19T13:29:12;1.60;;;1.50;;
23362;SDS011;11853;48.080;11.960;2023-11-19T13:31:38;3.67;;;3.03;;
23362;SDS011;11853;48.080;11.960;2023-11-19T13:34:07;2.60;;;2.40;;
23362;SDS011;11853;48.080;11.960;2023-11-19T13:36:33;1.80;;;1.70;;
23362;SDS011;11853;48.080;11.960;2023-11-19T13:39:02;2.65;;;1.48;;
23362;SDS011;11853;48.080;11.960;2023-11-19T13:41:32;1.35;;;1.25;;
23362;SDS011;11853;48.080;11.960;2023-11-19T13:43:58;1.27;;;1.13;;
23362;SDS011;11853;48.080;11.960;2023-11-19T13:46:23;2.45;;;2.25;;
23362;SDS011;11853;48.080;11.960;2023-11-19T13:48:49;1.15;;;0.90;;
23362;SDS011;11853;48.080;11.960;2023-11-19T13:51:15;1.20;;;1.10;;
23362;SDS011;11853;48.080;11.960;2023-11-19T13:53:41;2.05;;;0.70;;
23362;SDS011;11853;48.080;11.960;2023-11-19T13:56:08;0.73;;;0.73;;
23362;SDS011;11853;48.080;11.960;2023-11-19T13:58:34;0.80;;;0.80;;
23362;SDS011;11853;48.080;11.960;2023-11-19T14:01:00;0.75;;;0.75;;
23362;SDS011;11853;48.080;11.960;2023-11-19T14:03:26;2.35;;;0.68;;
23362;SDS011;11853;48.080;11.960;2023-11-19T14:05:52;0.45;;;0.45;;
23362;SDS011;11853;48.080;11.960;2023-11-19T14:08:20;1.17;;;0.32;;
23362;SDS011;11853;48.080;11.960;2023-11-19T14:10:49;0.90;;;0.50;;
23362;SDS011;11853;48.080;11.960;2023-11-19T14:13:14;0.43;;;0.30;;
23362;SDS011;11853;48.080;11.960;2023-11-19T14:15:40;0.80;;;0.80;;
23362;SDS011;11853;48.080;11.960;2023-11-19T14:18:06;1.20;;;1.10;;
23362;SDS011;11853;48.080;11.960;2023-11-19T14:20:38;2.20;;;1.20;;
23362;SDS011;11853;48.080;11.960;2023-11-19T14:23:04;2.22;;;2.03;;
23362;SDS011;11853;48.080;11.960;2023-11-19T14:25:39;1.05;;;0.80;;
23362;SDS011;11853;48.080;11.960;2023-11-19T14:28:10;1.13;;;0.90;;
23362;SDS011;11853;48.080;11.960;2023-11-19T14:30:37;0.65;;;0.65;;
23362;SDS011;11853;48.080;11.960;2023-11-19T14:33:15;1.70;;;1.45;;
23362;SDS011;11853;48.080;11.960;2023-11-19T14:35:53;1.48;;;1.38;;
23362;SDS011;11853;48.080;11.960;2023-11-19T14:38:26;1.30;;;1.20;;
23362;SDS011;11853;48.080;11.960;2023-11-19T14:41:16;1.27;;;0.80;;
23362;SDS011;11853;48.080;11.960;2023-11-19T14:43:45;0.70;;;0.68;;
23362;SDS011;11853;48.080;11.960;2023-11-19T14:46:15;1.40;;;1.30;;
23362;SDS011;11853;48.080;11.960;2023-11-19T14:48:41;1.58;;;1.48;;
23362;SDS011;11853;48.080;11.960;2023-11-19T14:51:06;1.60;;;1.50;;
23362;SDS011;11853;48.080;11.960;2023-11-19T14:53:33;1.15;;;1.13;;
23362;SDS011;11853;48.080;11.960;2023-11-19T14:56:00;1.25;;;1.20;;
23362;SDS011;11853;48.080;11.960;2023-11-19T14:58:26;1.13;;;1.02;;
23362;SDS011;11853;48.080;11.960;2023-11-19T15:00:52;1.33;;;1.23;;
23362;SDS011;11853;48.080;11.960;2023-11-19T15:03:18;1.02;;;0.73;;
23362;SDS011;11853;48.080;11.960;2023-11-19T15:05:47;0.95;;;0.95;;